sensor_id;sensor_type;location;lat;lon;timestamp;P1;durP1;ratioP1;P2;durP2;ratioP2
8247;SDS011;4164;49.844;8.830;2022-11-15T00:00:52;7.03;;;3.30;;
8247;SDS011;4164;49.844;8.830;2022-11-15T00:03:25;4.07;;;3.40;;
8247;SDS011;4164;49.844;8.830;2022-11-15T00:05:52;3.50;;;2.70;;
8247;SDS011;4164;49.844;8.830;2022-11-15T00:08:18;6.60;;;3.27;;
8247;SDS011;4164;49.844;8.830;2022-11-15T00:10:53;5.27;;;3.37;;
8247;SDS011;4164;49.844;8.830;2022-11-15T00:13:19;5.60;;;3.37;;
8247;SDS011;4164;49.844;8.830;2022-11-15T00:15:45;4.53;;;3.37;;
8247;SDS011;4164;49.844;8.830;2022-11-15T00:18:14;5.13;;;3.03;;
8247;SDS011;4164;49.844;8.830;2022-11-15T00:20:40;5.13;;;3.20;;
8247;SDS011;4164;49.844;8.830;2022-11-15T00:23:06;4.13;;;3.40;;
8247;SDS011;4164;49.844;8.830;2022-11-15T00:25:31;5.40;;;3.53;;
8247;SDS011;4164;49.844;8.830;2022-11-15T00:27:58;7.90;;;4.03;;
8247;SDS011;4164;49.844;8.830;2022-11-15T00:30:24;6.47;;;4.07;;
8247;SDS011;4164;49.844;8.830;2022-11-15T00:32:50;5.13;;;3.50;;
8247;SDS011;4164;49.844;8.830;2022-11-15T00:35:16;3.80;;;2.70;;
8247;SDS011;4164;49.844;8.830;2022-11-15T00:37:42;5.90;;;3.10;;
8247;SDS011;4164;49.844;8.830;2022-11-15T00:40:12;5.60;;;3.23;;
8247;SDS011;4164;49.844;8.830;2022-11-15T00:42:38;4.50;;;3.07;;
8247;SDS011;4164;49.844;8.830;2022-11-15T00:45:04;5.63;;;3.63;;
8247;SDS011;4164;49.844;8.830;2022-11-15T00:47:30;7.37;;;3.70;;
8247;SDS011;4164;49.844;8.830;2022-11-15T00:49:58;10.33;;;3.70;;
8247;SDS011;4164;49.844;8.830;2022-11-15T00:52:24;6.03;;;3.63;;
8247;SDS011;4164;49.844;8.830;2022-11-15T00:54:49;5.00;;;3.20;;
8247;SDS011;4164;49.844;8.830;2022-11-15T00:57:15;4.63;;;3.63;;
8247;SDS011;4164;49.844;8.830;2022-11-15T00:59:41;7.47;;;3.87;;
8247;SDS011;4164;49.844;8.830;2022-11-15T01:02:06;5.63;;;3.53;;
8247;SDS011;4164;49.844;8.830;2022-11-15T01:04:32;5.10;;;3.70;;
8247;SDS011;4164;49.844;8.830;2022-11-15T01:06:57;7.03;;;3.50;;
8247;SDS011;4164;49.844;8.830;2022-11-15T01:09:23;5.03;;;3.53;;
8247;SDS011;4164;49.844;8.830;2022-11-15T01:11:48;6.20;;;3.63;;
8247;SDS011;4164;49.844;8.830;2022-11-15T01:14:14;6.07;;;3.17;;
8247;SDS011;4164;49.844;8.830;2022-11-15T01:16:40;5.47;;;3.33;;
8247;SDS011;4164;49.844;8.830;2022-11-15T01:19:07;5.53;;;3.60;;
8247;SDS011;4164;49.844;8.830;2022-11-15T01:21:32;5.67;;;3.17;;
8247;SDS011;4164;49.844;8.830;2022-11-15T01:23:58;4.20;;;3.00;;
8247;SDS011;4164;49.844;8.830;2022-11-15T01:26:24;4.10;;;3.40;;
8247;SDS011;4164;49.844;8.830;2022-11-15T01:28:50;7.77;;;3.60;;
8247;SDS011;4164;49.844;8.830;2022-11-15T01:31:17;4.03;;;3.67;;
8247;SDS011;4164;49.844;8.830;2022-11-15T01:33:45;4.50;;;3.00;;
8247;SDS011;4164;49.844;8.830;2022-11-15T01:36:12;4.03;;;3.00;;
8247;SDS011;4164;49.844;8.830;2022-11-15T01:38:43;6.43;;;3.70;;
8247;SDS011;4164;49.844;8.830;2022-11-15T01:41:16;7.20;;;3.60;;
8247;SDS011;4164;49.844;8.830;2022-11-15T01:43:43;6.80;;;3.73;;
8247;SDS011;4164;49.844;8.830;2022-11-15T01:48:48;6.73;;;3.70;;
8247;SDS011;4164;49.844;8.830;2022-11-15T01:51:16;6.57;;;3.90;;
8247;SDS011;4164;49.844;8.830;2022-11-15T01:53:44;3.50;;;3.13;;
8247;SDS011;4164;49.844;8.830;2022-11-15T01:56:13;7.23;;;3.70;;
8247;SDS011;4164;49.844;8.830;2022-11-15T01:58:43;9.57;;;3.97;;
8247;SDS011;4164;49.844;8.830;2022-11-15T02:01:11;5.03;;;3.80;;
8247;SDS011;4164;49.844;8.830;2022-11-15T02:06:14;3.93;;;3.33;;
8247;SDS011;4164;49.844;8.830;2022-11-15T02:08:39;4.17;;;3.13;;
8247;SDS011;4164;49.844;8.830;2022-11-15T02:11:09;5.30;;;3.87;;
8247;SDS011;4164;49.844;8.830;2022-11-15T02:13:35;4.97;;;3.60;;
8247;SDS011;4164;49.844;8.830;2022-11-15T02:18:39;4.17;;;3.67;;
8247;SDS011;4164;49.844;8.830;2022-11-15T02:26:46;6.90;;;3.53;;
8247;SDS011;4164;49.844;8.830;2022-11-15T02:29:41;5.67;;;3.50;;
8247;SDS011;4164;49.844;8.830;2022-11-15T02:32:20;5.47;;;4.00;;
8247;SDS011;4164;49.844;8.830;2022-11-15T02:37:52;7.47;;;3.77;;
8247;SDS011;4164;49.844;8.830;2022-11-15T02:43:02;4.03;;;3.27;;
8247;SDS011;4164;49.844;8.830;2022-11-15T02:45:53;4.33;;;3.30;;
8247;SDS011;4164;49.844;8.830;2022-11-15T02:48:38;7.97;;;3.40;;
8247;SDS011;4164;49.844;8.830;2022-11-15T02:51:04;4.50;;;3.23;;
8247;SDS011;4164;49.844;8.830;2022-11-15T02:53:30;7.43;;;3.60;;
8247;SDS011;4164;49.844;8.830;2022-11-15T02:55:56;6.57;;;3.80;;
8247;SDS011;4164;49.844;8.830;2022-11-15T02:58:31;4.83;;;3.27;;
8247;SDS011;4164;49.844;8.830;2022-11-15T03:01:50;5.73;;;3.27;;
8247;SDS011;4164;49.844;8.830;2022-11-15T03:03:59;9.73;;;3.67;;
8247;SDS011;4164;49.844;8.830;2022-11-15T03:09:06;5.47;;;3.20;;
8247;SDS011;4164;49.844;8.830;2022-11-15T03:11:52;4.23;;;2.83;;
8247;SDS011;4164;49.844;8.830;2022-11-15T03:14:25;4.50;;;3.30;;
8247;SDS011;4164;49.844;8.830;2022-11-15T03:17:02;7.40;;;3.60;;
8247;SDS011;4164;49.844;8.830;2022-11-15T03:19:52;6.67;;;3.80;;
8247;SDS011;4164;49.844;8.830;2022-11-15T03:22:21;5.30;;;3.80;;
8247;SDS011;4164;49.844;8.830;2022-11-15T03:24:53;5.80;;;3.73;;
8247;SDS011;4164;49.844;8.830;2022-11-15T03:27:23;5.07;;;3.47;;
8247;SDS011;4164;49.844;8.830;2022-11-15T03:29:53;5.17;;;3.97;;
8247;SDS011;4164;49.844;8.830;2022-11-15T03:32:23;6.93;;;3.90;;
8247;SDS011;4164;49.844;8.830;2022-11-15T03:34:55;4.77;;;3.33;;
8247;SDS011;4164;49.844;8.830;2022-11-15T03:37:43;6.00;;;3.47;;
8247;SDS011;4164;49.844;8.830;2022-11-15T03:40:39;4.37;;;3.33;;
8247;SDS011;4164;49.844;8.830;2022-11-15T03:43:09;6.23;;;3.47;;
8247;SDS011;4164;49.844;8.830;2022-11-15T03:45:55;6.97;;;3.17;;
8247;SDS011;4164;49.844;8.830;2022-11-15T03:48:47;3.73;;;3.10;;
8247;SDS011;4164;49.844;8.830;2022-11-15T03:51:16;5.07;;;2.83;;
8247;SDS011;4164;49.844;8.830;2022-11-15T03:53:45;4.93;;;3.13;;
8247;SDS011;4164;49.844;8.830;2022-11-15T03:56:11;5.03;;;3.50;;
8247;SDS011;4164;49.844;8.830;2022-11-15T03:58:36;6.73;;;3.60;;
8247;SDS011;4164;49.844;8.830;2022-11-15T04:01:02;6.30;;;3.20;;
8247;SDS011;4164;49.844;8.830;2022-11-15T04:03:28;4.57;;;3.23;;
8247;SDS011;4164;49.844;8.830;2022-11-15T04:05:53;4.77;;;3.33;;
8247;SDS011;4164;49.844;8.830;2022-11-15T04:08:19;4.37;;;2.77;;
8247;SDS011;4164;49.844;8.830;2022-11-15T04:10:44;5.03;;;3.17;;
8247;SDS011;4164;49.844;8.830;2022-11-15T04:13:10;6.23;;;3.23;;
8247;SDS011;4164;49.844;8.830;2022-11-15T04:15:35;5.73;;;3.23;;
8247;SDS011;4164;49.844;8.830;2022-11-15T04:18:01;4.20;;;3.20;;
8247;SDS011;4164;49.844;8.830;2022-11-15T04:20:28;6.50;;;3.33;;
8247;SDS011;4164;49.844;8.830;2022-11-15T04:23:18;6.50;;;3.10;;
8247;SDS011;4164;49.844;8.830;2022-11-15T04:26:08;5.07;;;3.00;;
8247;SDS011;4164;49.844;8.830;2022-11-15T04:28:39;4.27;;;3.27;;
8247;SDS011;4164;49.844;8.830;2022-11-15T04:31:25;4.07;;;2.93;;
8247;SDS011;4164;49.844;8.830;2022-11-15T04:33:51;5.43;;;2.97;;
8247;SDS011;4164;49.844;8.830;2022-11-15T04:36:17;5.03;;;3.30;;
8247;SDS011;4164;49.844;8.830;2022-11-15T04:39:02;3.63;;;3.00;;
8247;SDS011;4164;49.844;8.830;2022-11-15T04:41:28;6.97;;;3.90;;
8247;SDS011;4164;49.844;8.830;2022-11-15T04:43:54;4.97;;;3.73;;
8247;SDS011;4164;49.844;8.830;2022-11-15T04:46:19;9.17;;;4.27;;
8247;SDS011;4164;49.844;8.830;2022-11-15T04:48:45;9.73;;;4.30;;
8247;SDS011;4164;49.844;8.830;2022-11-15T04:51:11;8.87;;;3.67;;
8247;SDS011;4164;49.844;8.830;2022-11-15T04:53:36;6.87;;;3.70;;
8247;SDS011;4164;49.844;8.830;2022-11-15T04:56:02;4.73;;;3.93;;
8247;SDS011;4164;49.844;8.830;2022-11-15T04:58:28;4.17;;;3.67;;
8247;SDS011;4164;49.844;8.830;2022-11-15T05:00:53;3.60;;;3.30;;
8247;SDS011;4164;49.844;8.830;2022-11-15T05:03:19;7.20;;;3.57;;
8247;SDS011;4164;49.844;8.830;2022-11-15T05:06:03;6.43;;;3.67;;
8247;SDS011;4164;49.844;8.830;2022-11-15T05:08:29;4.30;;;3.20;;
8247;SDS011;4164;49.844;8.830;2022-11-15T05:10:54;8.87;;;3.63;;
8247;SDS011;4164;49.844;8.830;2022-11-15T05:13:20;9.43;;;3.43;;
8247;SDS011;4164;49.844;8.830;2022-11-15T05:15:46;5.50;;;3.20;;
8247;SDS011;4164;49.844;8.830;2022-11-15T05:18:12;4.60;;;3.03;;
8247;SDS011;4164;49.844;8.830;2022-11-15T05:20:37;4.80;;;3.37;;
8247;SDS011;4164;49.844;8.830;2022-11-15T05:23:03;6.77;;;3.70;;
8247;SDS011;4164;49.844;8.830;2022-11-15T05:25:29;6.50;;;3.33;;
8247;SDS011;4164;49.844;8.830;2022-11-15T05:27:54;5.80;;;3.50;;
8247;SDS011;4164;49.844;8.830;2022-11-15T05:30:20;4.57;;;3.30;;
8247;SDS011;4164;49.844;8.830;2022-11-15T05:32:45;7.70;;;4.83;;
8247;SDS011;4164;49.844;8.830;2022-11-15T05:35:13;8.90;;;5.53;;
8247;SDS011;4164;49.844;8.830;2022-11-15T05:37:56;9.50;;;4.80;;
8247;SDS011;4164;49.844;8.830;2022-11-15T05:40:21;11.47;;;5.43;;
8247;SDS011;4164;49.844;8.830;2022-11-15T05:42:47;7.80;;;4.90;;
8247;SDS011;4164;49.844;8.830;2022-11-15T05:45:13;7.83;;;5.00;;
8247;SDS011;4164;49.844;8.830;2022-11-15T05:47:39;5.73;;;4.20;;
8247;SDS011;4164;49.844;8.830;2022-11-15T05:50:05;7.23;;;5.40;;
8247;SDS011;4164;49.844;8.830;2022-11-15T05:52:33;8.97;;;5.53;;
8247;SDS011;4164;49.844;8.830;2022-11-15T05:55:02;7.03;;;5.47;;
8247;SDS011;4164;49.844;8.830;2022-11-15T05:57:29;9.30;;;5.73;;
8247;SDS011;4164;49.844;8.830;2022-11-15T05:59:55;10.70;;;5.97;;
8247;SDS011;4164;49.844;8.830;2022-11-15T06:02:23;6.07;;;4.20;;
8247;SDS011;4164;49.844;8.830;2022-11-15T06:04:49;5.60;;;3.73;;
8247;SDS011;4164;49.844;8.830;2022-11-15T06:07:14;4.67;;;3.37;;
8247;SDS011;4164;49.844;8.830;2022-11-15T06:09:40;7.97;;;5.40;;
8247;SDS011;4164;49.844;8.830;2022-11-15T06:12:06;9.77;;;4.80;;
8247;SDS011;4164;49.844;8.830;2022-11-15T06:14:31;6.47;;;3.90;;
8247;SDS011;4164;49.844;8.830;2022-11-15T06:16:57;6.40;;;3.70;;
8247;SDS011;4164;49.844;8.830;2022-11-15T06:19:22;6.87;;;3.50;;
8247;SDS011;4164;49.844;8.830;2022-11-15T06:21:48;4.97;;;3.70;;
8247;SDS011;4164;49.844;8.830;2022-11-15T06:24:13;6.83;;;3.53;;
8247;SDS011;4164;49.844;8.830;2022-11-15T06:26:39;6.43;;;3.40;;
8247;SDS011;4164;49.844;8.830;2022-11-15T06:29:04;7.47;;;3.30;;
8247;SDS011;4164;49.844;8.830;2022-11-15T06:31:30;7.80;;;3.33;;
8247;SDS011;4164;49.844;8.830;2022-11-15T06:33:56;5.67;;;3.03;;
8247;SDS011;4164;49.844;8.830;2022-11-15T06:36:21;7.90;;;4.17;;
8247;SDS011;4164;49.844;8.830;2022-11-15T06:38:47;9.60;;;5.57;;
8247;SDS011;4164;49.844;8.830;2022-11-15T06:41:13;6.07;;;3.73;;
8247;SDS011;4164;49.844;8.830;2022-11-15T06:43:39;7.53;;;3.13;;
8247;SDS011;4164;49.844;8.830;2022-11-15T06:46:05;3.10;;;2.73;;
8247;SDS011;4164;49.844;8.830;2022-11-15T06:48:32;4.63;;;2.70;;
8247;SDS011;4164;49.844;8.830;2022-11-15T06:50:59;8.83;;;3.67;;
8247;SDS011;4164;49.844;8.830;2022-11-15T06:53:26;9.43;;;6.50;;
8247;SDS011;4164;49.844;8.830;2022-11-15T06:55:52;12.57;;;8.17;;
8247;SDS011;4164;49.844;8.830;2022-11-15T06:58:20;13.57;;;7.23;;
8247;SDS011;4164;49.844;8.830;2022-11-15T07:00:46;12.40;;;7.53;;
8247;SDS011;4164;49.844;8.830;2022-11-15T07:03:11;13.63;;;8.00;;
8247;SDS011;4164;49.844;8.830;2022-11-15T07:05:37;18.30;;;10.00;;
8247;SDS011;4164;49.844;8.830;2022-11-15T07:08:03;13.80;;;7.63;;
8247;SDS011;4164;49.844;8.830;2022-11-15T07:10:29;14.63;;;8.33;;
8247;SDS011;4164;49.844;8.830;2022-11-15T07:12:55;19.03;;;9.10;;
8247;SDS011;4164;49.844;8.830;2022-11-15T07:15:22;11.90;;;6.93;;
8247;SDS011;4164;49.844;8.830;2022-11-15T07:17:49;9.53;;;5.67;;
8247;SDS011;4164;49.844;8.830;2022-11-15T07:20:15;8.23;;;5.23;;
8247;SDS011;4164;49.844;8.830;2022-11-15T07:22:42;10.27;;;5.20;;
8247;SDS011;4164;49.844;8.830;2022-11-15T07:25:10;8.20;;;5.03;;
8247;SDS011;4164;49.844;8.830;2022-11-15T07:27:36;9.17;;;5.60;;
8247;SDS011;4164;49.844;8.830;2022-11-15T07:30:02;9.53;;;5.47;;
8247;SDS011;4164;49.844;8.830;2022-11-15T07:32:28;7.50;;;4.90;;
8247;SDS011;4164;49.844;8.830;2022-11-15T07:34:53;12.57;;;6.73;;
8247;SDS011;4164;49.844;8.830;2022-11-15T07:37:19;11.00;;;6.07;;
8247;SDS011;4164;49.844;8.830;2022-11-15T07:39:44;7.97;;;5.60;;
8247;SDS011;4164;49.844;8.830;2022-11-15T07:42:10;15.80;;;8.17;;
8247;SDS011;4164;49.844;8.830;2022-11-15T07:44:54;18.87;;;9.63;;
8247;SDS011;4164;49.844;8.830;2022-11-15T07:47:20;11.43;;;7.37;;
8247;SDS011;4164;49.844;8.830;2022-11-15T07:49:46;14.17;;;7.80;;
8247;SDS011;4164;49.844;8.830;2022-11-15T07:52:12;14.93;;;8.27;;
8247;SDS011;4164;49.844;8.830;2022-11-15T07:54:38;12.67;;;8.37;;
8247;SDS011;4164;49.844;8.830;2022-11-15T07:57:04;13.97;;;9.13;;
8247;SDS011;4164;49.844;8.830;2022-11-15T07:59:30;14.20;;;8.87;;
8247;SDS011;4164;49.844;8.830;2022-11-15T08:01:56;11.07;;;7.03;;
8247;SDS011;4164;49.844;8.830;2022-11-15T08:04:21;10.77;;;6.27;;
8247;SDS011;4164;49.844;8.830;2022-11-15T08:06:47;7.67;;;5.37;;
8247;SDS011;4164;49.844;8.830;2022-11-15T08:09:12;8.97;;;5.50;;
8247;SDS011;4164;49.844;8.830;2022-11-15T08:11:38;6.63;;;4.97;;
8247;SDS011;4164;49.844;8.830;2022-11-15T08:14:03;5.73;;;4.80;;
8247;SDS011;4164;49.844;8.830;2022-11-15T08:16:29;6.43;;;4.60;;
8247;SDS011;4164;49.844;8.830;2022-11-15T08:18:55;10.83;;;5.27;;
8247;SDS011;4164;49.844;8.830;2022-11-15T08:21:25;10.50;;;5.33;;
8247;SDS011;4164;49.844;8.830;2022-11-15T08:23:50;6.33;;;5.03;;
8247;SDS011;4164;49.844;8.830;2022-11-15T08:26:16;10.60;;;5.93;;
8247;SDS011;4164;49.844;8.830;2022-11-15T08:28:42;7.60;;;5.40;;
8247;SDS011;4164;49.844;8.830;2022-11-15T08:31:12;11.47;;;6.60;;
8247;SDS011;4164;49.844;8.830;2022-11-15T08:33:40;10.63;;;6.93;;
8247;SDS011;4164;49.844;8.830;2022-11-15T08:36:06;11.13;;;5.97;;
8247;SDS011;4164;49.844;8.830;2022-11-15T08:38:31;11.87;;;5.57;;
8247;SDS011;4164;49.844;8.830;2022-11-15T08:41:02;15.37;;;6.00;;
8247;SDS011;4164;49.844;8.830;2022-11-15T08:43:29;10.97;;;5.60;;
8247;SDS011;4164;49.844;8.830;2022-11-15T08:45:58;12.43;;;5.50;;
8247;SDS011;4164;49.844;8.830;2022-11-15T08:48:24;10.23;;;4.70;;
8247;SDS011;4164;49.844;8.830;2022-11-15T08:50:56;6.50;;;4.13;;
8247;SDS011;4164;49.844;8.830;2022-11-15T08:53:22;6.07;;;3.60;;
8247;SDS011;4164;49.844;8.830;2022-11-15T08:55:48;4.73;;;3.70;;
8247;SDS011;4164;49.844;8.830;2022-11-15T08:58:13;4.00;;;3.07;;
8247;SDS011;4164;49.844;8.830;2022-11-15T09:00:39;4.23;;;3.13;;
8247;SDS011;4164;49.844;8.830;2022-11-15T09:03:05;5.30;;;3.00;;
8247;SDS011;4164;49.844;8.830;2022-11-15T09:05:31;4.97;;;3.27;;
8247;SDS011;4164;49.844;8.830;2022-11-15T09:07:57;6.30;;;3.33;;
8247;SDS011;4164;49.844;8.830;2022-11-15T09:10:23;4.20;;;3.10;;
8247;SDS011;4164;49.844;8.830;2022-11-15T09:12:49;6.67;;;3.67;;
8247;SDS011;4164;49.844;8.830;2022-11-15T09:15:15;4.57;;;2.93;;
8247;SDS011;4164;49.844;8.830;2022-11-15T09:17:41;6.87;;;3.40;;
8247;SDS011;4164;49.844;8.830;2022-11-15T09:20:07;5.13;;;3.90;;
8247;SDS011;4164;49.844;8.830;2022-11-15T09:22:33;8.67;;;4.97;;
8247;SDS011;4164;49.844;8.830;2022-11-15T09:24:59;4.63;;;3.80;;
8247;SDS011;4164;49.844;8.830;2022-11-15T09:27:30;6.07;;;4.23;;
8247;SDS011;4164;49.844;8.830;2022-11-15T09:29:56;5.87;;;4.07;;
8247;SDS011;4164;49.844;8.830;2022-11-15T09:32:22;6.90;;;4.30;;
8247;SDS011;4164;49.844;8.830;2022-11-15T09:34:49;6.87;;;4.83;;
8247;SDS011;4164;49.844;8.830;2022-11-15T09:37:15;6.20;;;4.10;;
8247;SDS011;4164;49.844;8.830;2022-11-15T09:39:41;7.20;;;4.30;;
8247;SDS011;4164;49.844;8.830;2022-11-15T09:42:27;7.00;;;4.23;;
8247;SDS011;4164;49.844;8.830;2022-11-15T09:45:07;6.43;;;4.10;;
8247;SDS011;4164;49.844;8.830;2022-11-15T09:48:26;8.60;;;5.23;;
8247;SDS011;4164;49.844;8.830;2022-11-15T09:50:50;6.57;;;5.30;;
8247;SDS011;4164;49.844;8.830;2022-11-15T09:53:41;10.93;;;5.10;;
8247;SDS011;4164;49.844;8.830;2022-11-15T09:56:15;5.17;;;4.47;;
8247;SDS011;4164;49.844;8.830;2022-11-15T10:01:36;6.93;;;4.80;;
8247;SDS011;4164;49.844;8.830;2022-11-15T10:04:14;7.63;;;4.00;;
8247;SDS011;4164;49.844;8.830;2022-11-15T10:06:42;6.37;;;4.17;;
8247;SDS011;4164;49.844;8.830;2022-11-15T10:09:15;5.37;;;3.60;;
8247;SDS011;4164;49.844;8.830;2022-11-15T10:11:45;7.40;;;3.50;;
8247;SDS011;4164;49.844;8.830;2022-11-15T10:16:49;4.67;;;3.27;;
8247;SDS011;4164;49.844;8.830;2022-11-15T10:25:09;4.67;;;3.80;;
8247;SDS011;4164;49.844;8.830;2022-11-15T10:27:36;8.00;;;4.27;;
8247;SDS011;4164;49.844;8.830;2022-11-15T10:30:03;6.40;;;4.50;;
8247;SDS011;4164;49.844;8.830;2022-11-15T10:32:31;6.43;;;3.70;;
8247;SDS011;4164;49.844;8.830;2022-11-15T10:34:59;6.27;;;4.07;;
8247;SDS011;4164;49.844;8.830;2022-11-15T10:37:45;6.00;;;4.10;;
8247;SDS011;4164;49.844;8.830;2022-11-15T10:42:42;4.40;;;3.93;;
8247;SDS011;4164;49.844;8.830;2022-11-15T10:45:28;5.83;;;3.93;;
8247;SDS011;4164;49.844;8.830;2022-11-15T10:50:45;5.63;;;4.27;;
8247;SDS011;4164;49.844;8.830;2022-11-15T10:53:16;6.23;;;3.67;;
8247;SDS011;4164;49.844;8.830;2022-11-15T10:55:57;6.80;;;3.97;;
8247;SDS011;4164;49.844;8.830;2022-11-15T11:01:16;5.90;;;3.13;;
8247;SDS011;4164;49.844;8.830;2022-11-15T11:04:04;3.57;;;2.90;;
8247;SDS011;4164;49.844;8.830;2022-11-15T11:06:45;3.10;;;2.10;;
8247;SDS011;4164;49.844;8.830;2022-11-15T11:12:09;6.03;;;4.87;;
8247;SDS011;4164;49.844;8.830;2022-11-15T11:14:37;1.80;;;1.70;;
8247;SDS011;4164;49.844;8.830;2022-11-15T11:19:37;1.87;;;1.57;;
8247;SDS011;4164;49.844;8.830;2022-11-15T11:30:20;2.60;;;1.50;;
8247;SDS011;4164;49.844;8.830;2022-11-15T11:32:59;1.60;;;1.50;;
8247;SDS011;4164;49.844;8.830;2022-11-15T11:35:43;1.70;;;1.60;;
8247;SDS011;4164;49.844;8.830;2022-11-15T11:41:42;2.73;;;1.90;;
8247;SDS011;4164;49.844;8.830;2022-11-15T11:44:32;1.87;;;1.50;;
8247;SDS011;4164;49.844;8.830;2022-11-15T11:46:59;2.17;;;1.57;;
8247;SDS011;4164;49.844;8.830;2022-11-15T11:52:13;1.60;;;1.50;;
8247;SDS011;4164;49.844;8.830;2022-11-15T12:00:27;1.93;;;1.83;;
8247;SDS011;4164;49.844;8.830;2022-11-15T12:05:43;2.07;;;1.87;;
8247;SDS011;4164;49.844;8.830;2022-11-15T12:08:18;2.77;;;1.60;;
8247;SDS011;4164;49.844;8.830;2022-11-15T12:11:11;4.13;;;1.77;;
8247;SDS011;4164;49.844;8.830;2022-11-15T12:13:58;2.70;;;1.80;;
8247;SDS011;4164;49.844;8.830;2022-11-15T12:16:28;2.00;;;1.80;;
8247;SDS011;4164;49.844;8.830;2022-11-15T12:18:59;2.67;;;1.57;;
8247;SDS011;4164;49.844;8.830;2022-11-15T12:21:32;2.00;;;1.50;;
8247;SDS011;4164;49.844;8.830;2022-11-15T12:24:17;2.00;;;1.60;;
8247;SDS011;4164;49.844;8.830;2022-11-15T12:26:54;1.73;;;1.50;;
8247;SDS011;4164;49.844;8.830;2022-11-15T12:29:35;1.87;;;1.40;;
8247;SDS011;4164;49.844;8.830;2022-11-15T12:32:29;2.87;;;1.60;;
8247;SDS011;4164;49.844;8.830;2022-11-15T12:34:58;1.40;;;1.30;;
8247;SDS011;4164;49.844;8.830;2022-11-15T12:45:35;2.00;;;1.60;;
8247;SDS011;4164;49.844;8.830;2022-11-15T12:58:42;2.07;;;1.37;;
8247;SDS011;4164;49.844;8.830;2022-11-15T13:01:09;3.80;;;1.73;;
8247;SDS011;4164;49.844;8.830;2022-11-15T13:04:08;2.37;;;1.53;;
8247;SDS011;4164;49.844;8.830;2022-11-15T13:06:48;2.33;;;1.67;;
8247;SDS011;4164;49.844;8.830;2022-11-15T13:15:01;3.13;;;1.73;;
8247;SDS011;4164;49.844;8.830;2022-11-15T13:20:21;1.93;;;1.77;;
8247;SDS011;4164;49.844;8.830;2022-11-15T13:28:30;3.00;;;1.80;;
8247;SDS011;4164;49.844;8.830;2022-11-15T13:31:30;3.33;;;1.70;;
8247;SDS011;4164;49.844;8.830;2022-11-15T13:36:57;4.20;;;2.00;;
8247;SDS011;4164;49.844;8.830;2022-11-15T13:41:52;2.50;;;1.63;;
8247;SDS011;4164;49.844;8.830;2022-11-15T13:44:19;1.83;;;1.73;;
8247;SDS011;4164;49.844;8.830;2022-11-15T13:46:46;3.33;;;2.30;;
8247;SDS011;4164;49.844;8.830;2022-11-15T13:49:12;4.17;;;1.83;;
8247;SDS011;4164;49.844;8.830;2022-11-15T13:51:47;1.80;;;1.67;;
8247;SDS011;4164;49.844;8.830;2022-11-15T13:57:01;4.50;;;2.10;;
8247;SDS011;4164;49.844;8.830;2022-11-15T13:59:44;5.17;;;2.37;;
8247;SDS011;4164;49.844;8.830;2022-11-15T14:02:26;2.97;;;2.40;;
8247;SDS011;4164;49.844;8.830;2022-11-15T14:04:56;3.50;;;2.27;;
8247;SDS011;4164;49.844;8.830;2022-11-15T14:07:59;2.43;;;1.77;;
8247;SDS011;4164;49.844;8.830;2022-11-15T14:10:30;3.23;;;2.20;;
8247;SDS011;4164;49.844;8.830;2022-11-15T14:12:57;2.50;;;2.00;;
8247;SDS011;4164;49.844;8.830;2022-11-15T14:17:57;2.47;;;2.23;;
8247;SDS011;4164;49.844;8.830;2022-11-15T14:22:57;3.07;;;2.40;;
8247;SDS011;4164;49.844;8.830;2022-11-15T14:25:31;2.33;;;2.10;;
8247;SDS011;4164;49.844;8.830;2022-11-15T14:30:41;3.87;;;2.30;;
8247;SDS011;4164;49.844;8.830;2022-11-15T14:33:51;4.83;;;2.30;;
8247;SDS011;4164;49.844;8.830;2022-11-15T14:36:05;3.33;;;2.80;;
8247;SDS011;4164;49.844;8.830;2022-11-15T14:38:31;3.17;;;2.10;;
8247;SDS011;4164;49.844;8.830;2022-11-15T14:40:57;2.20;;;2.00;;
8247;SDS011;4164;49.844;8.830;2022-11-15T14:43:23;4.53;;;2.87;;
8247;SDS011;4164;49.844;8.830;2022-11-15T14:45:49;3.90;;;2.47;;
8247;SDS011;4164;49.844;8.830;2022-11-15T14:48:14;5.53;;;2.90;;
8247;SDS011;4164;49.844;8.830;2022-11-15T14:50:40;2.80;;;2.40;;
8247;SDS011;4164;49.844;8.830;2022-11-15T14:53:06;3.40;;;2.47;;
8247;SDS011;4164;49.844;8.830;2022-11-15T14:55:35;3.33;;;2.43;;
8247;SDS011;4164;49.844;8.830;2022-11-15T14:58:01;2.40;;;2.20;;
8247;SDS011;4164;49.844;8.830;2022-11-15T15:00:29;3.27;;;1.80;;
8247;SDS011;4164;49.844;8.830;2022-11-15T15:02:55;3.27;;;2.00;;
8247;SDS011;4164;49.844;8.830;2022-11-15T15:07:49;2.57;;;2.07;;
8247;SDS011;4164;49.844;8.830;2022-11-15T15:10:19;2.67;;;1.63;;
8247;SDS011;4164;49.844;8.830;2022-11-15T15:12:45;2.40;;;2.10;;
8247;SDS011;4164;49.844;8.830;2022-11-15T15:15:14;2.37;;;2.17;;
8247;SDS011;4164;49.844;8.830;2022-11-15T15:17:42;3.37;;;2.27;;
8247;SDS011;4164;49.844;8.830;2022-11-15T15:20:08;2.20;;;2.00;;
8247;SDS011;4164;49.844;8.830;2022-11-15T15:22:34;2.83;;;1.97;;
8247;SDS011;4164;49.844;8.830;2022-11-15T15:25:00;4.67;;;2.20;;
8247;SDS011;4164;49.844;8.830;2022-11-15T15:27:27;1.90;;;1.53;;
8247;SDS011;4164;49.844;8.830;2022-11-15T15:29:52;2.63;;;2.00;;
8247;SDS011;4164;49.844;8.830;2022-11-15T15:32:18;2.33;;;1.97;;
8247;SDS011;4164;49.844;8.830;2022-11-15T15:34:44;3.13;;;1.87;;
8247;SDS011;4164;49.844;8.830;2022-11-15T15:37:23;2.17;;;1.50;;
8247;SDS011;4164;49.844;8.830;2022-11-15T15:39:54;2.20;;;1.90;;
8247;SDS011;4164;49.844;8.830;2022-11-15T15:42:21;3.70;;;2.87;;
8247;SDS011;4164;49.844;8.830;2022-11-15T15:44:47;2.73;;;2.43;;
8247;SDS011;4164;49.844;8.830;2022-11-15T15:47:15;3.27;;;2.60;;
8247;SDS011;4164;49.844;8.830;2022-11-15T15:49:43;2.60;;;2.40;;
8247;SDS011;4164;49.844;8.830;2022-11-15T15:52:09;4.97;;;2.83;;
8247;SDS011;4164;49.844;8.830;2022-11-15T15:54:34;2.60;;;2.40;;
8247;SDS011;4164;49.844;8.830;2022-11-15T15:57:00;3.17;;;2.83;;
8247;SDS011;4164;49.844;8.830;2022-11-15T15:59:25;4.00;;;3.60;;
8247;SDS011;4164;49.844;8.830;2022-11-15T16:01:51;2.97;;;2.40;;
8247;SDS011;4164;49.844;8.830;2022-11-15T16:04:16;8.00;;;3.63;;
8247;SDS011;4164;49.844;8.830;2022-11-15T16:06:42;4.17;;;2.60;;
8247;SDS011;4164;49.844;8.830;2022-11-15T16:09:13;3.07;;;2.77;;
8247;SDS011;4164;49.844;8.830;2022-11-15T16:11:40;5.17;;;2.60;;
8247;SDS011;4164;49.844;8.830;2022-11-15T16:14:07;5.53;;;2.27;;
8247;SDS011;4164;49.844;8.830;2022-11-15T16:16:33;2.70;;;2.50;;
8247;SDS011;4164;49.844;8.830;2022-11-15T16:19:00;2.40;;;2.03;;
8247;SDS011;4164;49.844;8.830;2022-11-15T16:21:26;3.23;;;2.30;;
8247;SDS011;4164;49.844;8.830;2022-11-15T16:23:52;3.50;;;2.60;;
8247;SDS011;4164;49.844;8.830;2022-11-15T16:26:20;3.10;;;2.37;;
8247;SDS011;4164;49.844;8.830;2022-11-15T16:28:47;5.03;;;2.77;;
8247;SDS011;4164;49.844;8.830;2022-11-15T16:31:13;3.80;;;2.80;;
8247;SDS011;4164;49.844;8.830;2022-11-15T16:33:39;4.33;;;2.50;;
8247;SDS011;4164;49.844;8.830;2022-11-15T16:36:05;3.80;;;3.10;;
8247;SDS011;4164;49.844;8.830;2022-11-15T16:38:39;6.00;;;3.13;;
8247;SDS011;4164;49.844;8.830;2022-11-15T16:41:04;19.37;;;11.93;;
8247;SDS011;4164;49.844;8.830;2022-11-15T16:43:30;18.67;;;10.40;;
8247;SDS011;4164;49.844;8.830;2022-11-15T16:45:56;12.90;;;8.93;;
8247;SDS011;4164;49.844;8.830;2022-11-15T16:48:22;12.47;;;7.47;;
8247;SDS011;4164;49.844;8.830;2022-11-15T16:50:56;9.30;;;6.10;;
8247;SDS011;4164;49.844;8.830;2022-11-15T16:53:22;8.03;;;5.90;;
8247;SDS011;4164;49.844;8.830;2022-11-15T16:55:49;4.20;;;3.00;;
8247;SDS011;4164;49.844;8.830;2022-11-15T16:58:14;5.50;;;3.43;;
8247;SDS011;4164;49.844;8.830;2022-11-15T17:00:40;5.33;;;3.30;;
8247;SDS011;4164;49.844;8.830;2022-11-15T17:03:05;4.27;;;2.73;;
8247;SDS011;4164;49.844;8.830;2022-11-15T17:05:31;4.23;;;2.83;;
8247;SDS011;4164;49.844;8.830;2022-11-15T17:07:56;5.73;;;3.20;;
8247;SDS011;4164;49.844;8.830;2022-11-15T17:10:22;3.40;;;2.97;;
8247;SDS011;4164;49.844;8.830;2022-11-15T17:12:49;4.80;;;2.73;;
8247;SDS011;4164;49.844;8.830;2022-11-15T17:15:16;7.53;;;2.80;;
8247;SDS011;4164;49.844;8.830;2022-11-15T17:17:41;5.20;;;2.93;;
8247;SDS011;4164;49.844;8.830;2022-11-15T17:20:14;4.43;;;3.00;;
8247;SDS011;4164;49.844;8.830;2022-11-15T17:22:41;5.67;;;3.97;;
8247;SDS011;4164;49.844;8.830;2022-11-15T17:25:07;8.93;;;4.70;;
8247;SDS011;4164;49.844;8.830;2022-11-15T17:27:33;7.20;;;4.27;;
8247;SDS011;4164;49.844;8.830;2022-11-15T17:29:59;6.30;;;4.73;;